sensor_id;sensor_type;location;lat;lon;timestamp;pressure;altitude;pressure_sealevel;temperature;humidity
63901;BME280;50538;53.482;10.294;2023-03-18T00:04:41;100325.09;;;10.59;78.13
63901;BME280;50538;53.482;10.294;2023-03-18T00:15:06;100339.28;;;10.51;79.29
63901;BME280;50538;53.482;10.294;2023-03-18T00:25:24;100324.75;;;10.39;80.35
63901;BME280;50538;53.482;10.294;2023-03-18T00:35:28;100324.78;;;10.31;82.22
63901;BME280;50538;53.482;10.294;2023-03-18T00:45:42;100328.97;;;10.25;83.68
63901;BME280;50538;53.482;10.294;2023-03-18T00:56:00;100334.66;;;10.14;85.36
63901;BME280;50538;53.482;10.294;2023-03-18T01:06:28;100346.78;;;10.09;86.80
63901;BME280;50538;53.482;10.294;2023-03-18T01:16:49;100325.91;;;10.06;87.42
63901;BME280;50538;53.482;10.294;2023-03-18T01:26:52;100324.25;;;10.05;87.81
63901;BME280;50538;53.482;10.294;2023-03-18T01:37:17;100327.38;;;10.08;88.56
63901;BME280;50538;53.482;10.294;2023-03-18T01:47:41;100329.56;;;10.05;89.19
63901;BME280;50538;53.482;10.294;2023-03-18T01:57:55;100342.16;;;10.03;89.53
63901;BME280;50538;53.482;10.294;2023-03-18T02:07:57;100343.00;;;10.03;90.29
63901;BME280;50538;53.482;10.294;2023-03-18T02:18:32;100351.63;;;9.97;90.87
63901;BME280;50538;53.482;10.294;2023-03-18T02:29:04;100365.88;;;9.96;91.57
63901;BME280;50538;53.482;10.294;2023-03-18T02:39:29;100367.25;;;9.92;92.90
63901;BME280;50538;53.482;10.294;2023-03-18T02:49:30;100369.75;;;9.85;93.79
63901;BME280;50538;53.482;10.294;2023-03-18T02:59:37;100358.16;;;9.78;94.46
63901;BME280;50538;53.482;10.294;2023-03-18T03:09:37;100356.03;;;9.74;95.04
63901;BME280;50538;53.482;10.294;2023-03-18T03:19:45;100356.19;;;9.72;95.23
63901;BME280;50538;53.482;10.294;2023-03-18T03:29:47;100366.97;;;9.71;95.72
63901;BME280;50538;53.482;10.294;2023-03-18T03:40:03;100355.38;;;9.63;96.16
63901;BME280;50538;53.482;10.294;2023-03-18T03:50:10;100363.84;;;9.59;96.65
63901;BME280;50538;53.482;10.294;2023-03-18T04:00:26;100354.41;;;9.56;97.24
63901;BME280;50538;53.482;10.294;2023-03-18T04:10:39;100349.44;;;9.53;97.49
63901;BME280;50538;53.482;10.294;2023-03-18T04:20:41;100368.97;;;9.52;97.53
63901;BME280;50538;53.482;10.294;2023-03-18T04:30:43;100375.44;;;9.50;99.04
63901;BME280;50538;53.482;10.294;2023-03-18T04:40:44;100377.44;;;9.48;99.92
63901;BME280;50538;53.482;10.294;2023-03-18T04:51:02;100378.44;;;9.47;100.00
63901;BME280;50538;53.482;10.294;2023-03-18T05:01:18;100376.78;;;9.46;100.00
63901;BME280;50538;53.482;10.294;2023-03-18T05:11:26;100398.97;;;9.45;100.00
63901;BME280;50538;53.482;10.294;2023-03-18T05:21:34;100390.69;;;9.40;100.00
63901;BME280;50538;53.482;10.294;2023-03-18T05:31:42;100387.38;;;9.38;100.00
63901;BME280;50538;53.482;10.294;2023-03-18T05:41:47;100399.50;;;9.32;100.00
63901;BME280;50538;53.482;10.294;2023-03-18T05:52:04;100404.78;;;9.32;100.00
63901;BME280;50538;53.482;10.294;2023-03-18T06:02:09;100420.53;;;9.34;100.00
63901;BME280;50538;53.482;10.294;2023-03-18T06:12:10;100424.66;;;9.36;100.00
63901;BME280;50538;53.482;10.294;2023-03-18T06:22:23;100430.09;;;9.43;100.00
63901;BME280;50538;53.482;10.294;2023-03-18T06:32:28;100443.53;;;9.49;100.00
63901;BME280;50538;53.482;10.294;2023-03-18T06:42:48;100445.00;;;9.52;100.00
63901;BME280;50538;53.482;10.294;2023-03-18T06:53:11;100438.38;;;9.56;100.00
63901;BME280;50538;53.482;10.294;2023-03-18T07:13:38;100480.09;;;9.94;100.00
63901;BME280;50538;53.482;10.294;2023-03-18T07:23:41;100492.19;;;10.05;100.00
63901;BME280;50538;53.482;10.294;2023-03-18T07:33:46;100493.81;;;10.22;100.00
63901;BME280;50538;53.482;10.294;2023-03-18T07:44:01;100497.19;;;10.55;100.00
63901;BME280;50538;53.482;10.294;2023-03-18T08:04:30;100516.88;;;10.77;100.00
63901;BME280;50538;53.482;10.294;2023-03-18T08:14:59;100526.28;;;10.88;100.00
63901;BME280;50538;53.482;10.294;2023-03-18T08:25:16;100545.06;;;10.94;100.00
63901;BME280;50538;53.482;10.294;2023-03-18T08:46:33;100557.47;;;11.33;100.00
63901;BME280;50538;53.482;10.294;2023-03-18T08:56:51;100554.75;;;11.41;100.00
63901;BME280;50538;53.482;10.294;2023-03-18T09:18:24;100588.09;;;11.52;97.82
63901;BME280;50538;53.482;10.294;2023-03-18T09:29:28;100592.41;;;11.53;97.55
63901;BME280;50538;53.482;10.294;2023-03-18T09:40:15;100629.94;;;11.58;97.91
63901;BME280;50538;53.482;10.294;2023-03-18T10:12:38;100621.72;;;12.74;92.15
63901;BME280;50538;53.482;10.294;2023-03-18T10:44:37;100637.75;;;13.90;86.25
63901;BME280;50538;53.482;10.294;2023-03-18T10:55:44;100644.56;;;13.93;86.24
63901;BME280;50538;53.482;10.294;2023-03-18T11:39:07;100644.34;;;14.93;80.02
63901;BME280;50538;53.482;10.294;2023-03-18T11:49:19;100648.50;;;15.36;78.96
63901;BME280;50538;53.482;10.294;2023-03-18T12:32:41;100666.50;;;16.49;66.15
63901;BME280;50538;53.482;10.294;2023-03-18T12:54:23;100671.59;;;16.97;61.34
63901;BME280;50538;53.482;10.294;2023-03-18T13:04:55;100663.19;;;16.74;62.89
63901;BME280;50538;53.482;10.294;2023-03-18T13:15:48;100672.69;;;16.76;62.32
63901;BME280;50538;53.482;10.294;2023-03-18T13:27:02;100665.63;;;16.95;61.35
63901;BME280;50538;53.482;10.294;2023-03-18T13:48:28;100666.25;;;17.68;58.19
63901;BME280;50538;53.482;10.294;2023-03-18T13:59:05;100667.28;;;17.67;59.59
63901;BME280;50538;53.482;10.294;2023-03-18T14:09:44;100669.78;;;17.62;58.63
63901;BME280;50538;53.482;10.294;2023-03-18T14:20:25;100662.91;;;17.35;58.58
63901;BME280;50538;53.482;10.294;2023-03-18T14:42:24;100657.31;;;17.30;59.38
63901;BME280;50538;53.482;10.294;2023-03-18T14:52:53;100649.59;;;17.53;58.98
63901;BME280;50538;53.482;10.294;2023-03-18T15:13:54;100657.59;;;17.66;59.43
63901;BME280;50538;53.482;10.294;2023-03-18T15:24:28;100662.44;;;17.44;59.14
63901;BME280;50538;53.482;10.294;2023-03-18T15:45:44;100674.47;;;17.15;58.42
63901;BME280;50538;53.482;10.294;2023-03-18T15:56:29;100673.25;;;16.92;58.42
63901;BME280;50538;53.482;10.294;2023-03-18T16:07:12;100686.72;;;16.65;59.78
63901;BME280;50538;53.482;10.294;2023-03-18T16:17:17;100684.44;;;16.49;61.65
63901;BME280;50538;53.482;10.294;2023-03-18T16:27:49;100689.16;;;16.40;63.70
63901;BME280;50538;53.482;10.294;2023-03-18T16:49:39;100698.59;;;16.10;65.15
63901;BME280;50538;53.482;10.294;2023-03-18T16:59:57;100712.94;;;15.89;66.43
63901;BME280;50538;53.482;10.294;2023-03-18T17:10:31;100722.13;;;15.60;68.12
63901;BME280;50538;53.482;10.294;2023-03-18T17:21:04;100728.34;;;15.33;70.66
63901;BME280;50538;53.482;10.294;2023-03-18T17:42:32;100743.41;;;14.63;73.67
63901;BME280;50538;53.482;10.294;2023-03-18T17:52:39;100761.81;;;14.30;74.10
63901;BME280;50538;53.482;10.294;2023-03-18T18:03:27;100757.56;;;14.00;75.86
63901;BME280;50538;53.482;10.294;2023-03-18T18:14:13;100772.78;;;13.70;77.03
63901;BME280;50538;53.482;10.294;2023-03-18T18:24:49;100767.72;;;13.45;78.33
63901;BME280;50538;53.482;10.294;2023-03-18T18:35:57;100779.28;;;13.23;79.25
63901;BME280;50538;53.482;10.294;2023-03-18T18:57:25;100790.88;;;12.78;81.42
63901;BME280;50538;53.482;10.294;2023-03-18T19:07:42;100787.91;;;12.50;81.94
63901;BME280;50538;53.482;10.294;2023-03-18T19:28:31;100786.25;;;12.18;82.60
63901;BME280;50538;53.482;10.294;2023-03-18T19:39:08;100785.19;;;11.96;83.62
63901;BME280;50538;53.482;10.294;2023-03-18T19:49:34;100789.25;;;11.76;83.45
63901;BME280;50538;53.482;10.294;2023-03-18T19:59:43;100795.16;;;11.55;84.23
63901;BME280;50538;53.482;10.294;2023-03-18T20:10:31;100804.69;;;11.33;85.25
63901;BME280;50538;53.482;10.294;2023-03-18T20:21:28;100810.50;;;11.12;85.31
63901;BME280;50538;53.482;10.294;2023-03-18T20:32:06;100826.66;;;10.94;86.12
63901;BME280;50538;53.482;10.294;2023-03-18T20:42:19;100824.13;;;10.77;86.98
63901;BME280;50538;53.482;10.294;2023-03-18T20:52:29;100833.72;;;10.70;87.78
63901;BME280;50538;53.482;10.294;2023-03-18T21:02:39;100828.09;;;10.64;88.53
63901;BME280;50538;53.482;10.294;2023-03-18T21:12:42;100832.56;;;10.64;89.15
63901;BME280;50538;53.482;10.294;2023-03-18T21:22:43;100827.91;;;10.58;89.67
63901;BME280;50538;53.482;10.294;2023-03-18T21:33:27;100818.78;;;10.60;90.20
63901;BME280;50538;53.482;10.294;2023-03-18T21:43:34;100814.47;;;10.59;90.79
63901;BME280;50538;53.482;10.294;2023-03-18T21:53:37;100815.28;;;10.60;91.28
63901;BME280;50538;53.482;10.294;2023-03-18T22:03:46;100812.31;;;10.63;93.36
63901;BME280;50538;53.482;10.294;2023-03-18T22:13:51;100816.97;;;10.77;95.36
63901;BME280;50538;53.482;10.294;2023-03-18T22:24:18;100813.22;;;10.96;95.86
63901;BME280;50538;53.482;10.294;2023-03-18T22:34:22;100804.25;;;10.97;96.38
63901;BME280;50538;53.482;10.294;2023-03-18T22:44:45;100792.94;;;10.95;97.18
63901;BME280;50538;53.482;10.294;2023-03-18T22:55:01;100779.63;;;10.87;97.57
63901;BME280;50538;53.482;10.294;2023-03-18T23:05:26;100802.03;;;10.84;98.75
63901;BME280;50538;53.482;10.294;2023-03-18T23:26:57;100811.66;;;10.69;100.00
63901;BME280;50538;53.482;10.294;2023-03-18T23:36:59;100787.91;;;10.68;100.00
63901;BME280;50538;53.482;10.294;2023-03-18T23:47:38;100767.16;;;10.63;100.00
63901;BME280;50538;53.482;10.294;2023-03-18T23:58:06;100765.19;;;10.57;99.71
